Weather at Friedrichshafen Airport

Public forecast

Using degrees Celsius for public forecast. Weather courtesy of forecast.io.

Current aviation weather report (METAR) for Friedrichshafen Airport

Retrieved 2020/09/30 21:20 UTC (36 minutes ago):

EDNY 302120Z AUTO 04003KT 360V070 9999 3300 // FEW034/// 11/10 Q1012

Aviation forecast (TAF) for Friedrichshafen Airport

Retrieved 2020/09/30 18:30 UTC (3 hours ago):

TAF EDNY 301700Z 3018/0118 VRB03KT CAVOK BECMG 3022/0101 3000 BCFG BECMG 0101/0103 2000 BKN005 PROB30 TEMPO 0103/0107 0600 FG BKN003 BECMG 0107/0110 9999 SCT012 TEMPO 0112/0116 23005KT